sensor_id;sensor_type;location;lat;lon;timestamp;P1;durP1;ratioP1;P2;durP2;ratioP2
2522;SDS011;1272;53.332;9.860;2022-08-11T00:02:26;4.13;;;2.90;;
2522;SDS011;1272;53.332;9.860;2022-08-11T00:05:00;3.40;;;3.20;;
2522;SDS011;1272;53.332;9.860;2022-08-11T00:07:29;2.90;;;2.70;;
2522;SDS011;1272;53.332;9.860;2022-08-11T00:09:55;2.97;;;2.77;;
2522;SDS011;1272;53.332;9.860;2022-08-11T00:12:23;2.80;;;2.70;;
2522;SDS011;1272;53.332;9.860;2022-08-11T00:14:56;3.40;;;3.20;;
2522;SDS011;1272;53.332;9.860;2022-08-11T00:17:28;3.97;;;3.20;;
2522;SDS011;1272;53.332;9.860;2022-08-11T00:19:59;3.60;;;3.30;;
2522;SDS011;1272;53.332;9.860;2022-08-11T00:22:31;3.30;;;3.10;;
2522;SDS011;1272;53.332;9.860;2022-08-11T00:24:58;4.40;;;3.03;;
2522;SDS011;1272;53.332;9.860;2022-08-11T00:27:34;3.30;;;3.00;;
2522;SDS011;1272;53.332;9.860;2022-08-11T00:30:01;3.40;;;3.20;;
2522;SDS011;1272;53.332;9.860;2022-08-11T00:32:29;2.50;;;2.40;;
2522;SDS011;1272;53.332;9.860;2022-08-11T00:34:56;3.50;;;3.20;;
2522;SDS011;1272;53.332;9.860;2022-08-11T00:37:23;3.00;;;2.80;;
2522;SDS011;1272;53.332;9.860;2022-08-11T00:39:50;3.60;;;3.40;;
2522;SDS011;1272;53.332;9.860;2022-08-11T00:50:17;3.40;;;3.10;;
2522;SDS011;1272;53.332;9.860;2022-08-11T01:21:12;3.20;;;3.00;;
2522;SDS011;1272;53.332;9.860;2022-08-11T01:32:15;3.47;;;3.17;;
2522;SDS011;1272;53.332;9.860;2022-08-11T01:41:09;3.40;;;3.10;;
2522;SDS011;1272;53.332;9.860;2022-08-11T01:52:34;3.60;;;3.30;;
2522;SDS011;1272;53.332;9.860;2022-08-11T01:58:18;3.43;;;3.10;;
2522;SDS011;1272;53.332;9.860;2022-08-11T02:17:49;4.50;;;3.20;;
2522;SDS011;1272;53.332;9.860;2022-08-11T02:20:26;5.30;;;3.03;;
2522;SDS011;1272;53.332;9.860;2022-08-11T02:23:51;4.27;;;3.13;;
2522;SDS011;1272;53.332;9.860;2022-08-11T02:26:45;4.03;;;3.63;;
2522;SDS011;1272;53.332;9.860;2022-08-11T02:29:20;3.20;;;3.00;;
2522;SDS011;1272;53.332;9.860;2022-08-11T02:35:24;3.43;;;3.13;;
2522;SDS011;1272;53.332;9.860;2022-08-11T02:44:01;4.40;;;3.67;;
2522;SDS011;1272;53.332;9.860;2022-08-11T02:46:19;3.67;;;3.47;;
2522;SDS011;1272;53.332;9.860;2022-08-11T02:52:29;4.00;;;3.70;;
2522;SDS011;1272;53.332;9.860;2022-08-11T02:55:01;3.70;;;3.40;;
2522;SDS011;1272;53.332;9.860;2022-08-11T03:01:14;3.60;;;3.30;;
2522;SDS011;1272;53.332;9.860;2022-08-11T03:03:54;4.33;;;4.03;;
2522;SDS011;1272;53.332;9.860;2022-08-11T03:06:48;3.93;;;3.63;;
2522;SDS011;1272;53.332;9.860;2022-08-11T03:12:04;3.80;;;3.50;;
2522;SDS011;1272;53.332;9.860;2022-08-11T03:15:06;4.17;;;3.87;;
2522;SDS011;1272;53.332;9.860;2022-08-11T03:23:54;3.60;;;3.30;;
2522;SDS011;1272;53.332;9.860;2022-08-11T03:26:31;3.40;;;3.30;;
2522;SDS011;1272;53.332;9.860;2022-08-11T03:29:18;3.97;;;3.30;;
2522;SDS011;1272;53.332;9.860;2022-08-11T03:32:02;4.60;;;4.20;;
2522;SDS011;1272;53.332;9.860;2022-08-11T03:34:34;3.13;;;3.03;;
2522;SDS011;1272;53.332;9.860;2022-08-11T03:43:18;4.30;;;3.93;;
2522;SDS011;1272;53.332;9.860;2022-08-11T03:46:05;3.37;;;3.17;;
2522;SDS011;1272;53.332;9.860;2022-08-11T03:51:24;3.67;;;3.47;;
2522;SDS011;1272;53.332;9.860;2022-08-11T03:54:06;5.70;;;3.70;;
2522;SDS011;1272;53.332;9.860;2022-08-11T04:38:33;4.30;;;3.97;;
2522;SDS011;1272;53.332;9.860;2022-08-11T04:41:37;5.30;;;3.40;;
2522;SDS011;1272;53.332;9.860;2022-08-11T04:53:32;5.10;;;3.40;;
2522;SDS011;1272;53.332;9.860;2022-08-11T04:56:30;4.17;;;3.87;;
2522;SDS011;1272;53.332;9.860;2022-08-11T05:05:18;5.07;;;3.80;;
2522;SDS011;1272;53.332;9.860;2022-08-11T05:14:40;3.90;;;3.70;;
2522;SDS011;1272;53.332;9.860;2022-08-11T05:20:40;3.73;;;3.47;;
2522;SDS011;1272;53.332;9.860;2022-08-11T05:23:29;4.53;;;4.13;;
2522;SDS011;1272;53.332;9.860;2022-08-11T05:26:16;3.73;;;3.50;;
2522;SDS011;1272;53.332;9.860;2022-08-11T05:29:02;4.67;;;4.20;;
2522;SDS011;1272;53.332;9.860;2022-08-11T05:32:06;4.50;;;4.20;;
2522;SDS011;1272;53.332;9.860;2022-08-11T05:34:56;4.97;;;4.53;;
2522;SDS011;1272;53.332;9.860;2022-08-11T05:40:04;3.77;;;3.47;;
2522;SDS011;1272;53.332;9.860;2022-08-11T05:42:54;4.70;;;4.30;;
2522;SDS011;1272;53.332;9.860;2022-08-11T05:45:44;4.57;;;4.10;;
2522;SDS011;1272;53.332;9.860;2022-08-11T05:48:42;4.20;;;3.77;;
2522;SDS011;1272;53.332;9.860;2022-08-11T05:51:40;4.53;;;4.07;;
2522;SDS011;1272;53.332;9.860;2022-08-11T05:54:27;4.10;;;3.70;;
2522;SDS011;1272;53.332;9.860;2022-08-11T05:57:22;4.20;;;3.80;;
2522;SDS011;1272;53.332;9.860;2022-08-11T05:59:57;4.90;;;4.23;;
2522;SDS011;1272;53.332;9.860;2022-08-11T06:02:24;5.43;;;4.47;;
2522;SDS011;1272;53.332;9.860;2022-08-11T06:04:55;3.97;;;3.77;;
2522;SDS011;1272;53.332;9.860;2022-08-11T06:07:25;4.73;;;4.33;;
2522;SDS011;1272;53.332;9.860;2022-08-11T06:09:53;4.50;;;4.10;;
2522;SDS011;1272;53.332;9.860;2022-08-11T06:12:25;4.47;;;4.17;;
2522;SDS011;1272;53.332;9.860;2022-08-11T06:14:57;4.70;;;4.10;;
2522;SDS011;1272;53.332;9.860;2022-08-11T06:17:28;6.80;;;3.70;;
2522;SDS011;1272;53.332;9.860;2022-08-11T06:19:59;4.03;;;3.73;;
2522;SDS011;1272;53.332;9.860;2022-08-11T06:22:28;9.93;;;3.80;;
2522;SDS011;1272;53.332;9.860;2022-08-11T06:24:56;4.60;;;3.83;;
2522;SDS011;1272;53.332;9.860;2022-08-11T06:27:23;3.90;;;3.63;;
2522;SDS011;1272;53.332;9.860;2022-08-11T06:29:53;3.67;;;3.37;;
2522;SDS011;1272;53.332;9.860;2022-08-11T06:32:26;4.50;;;4.20;;
2522;SDS011;1272;53.332;9.860;2022-08-11T06:44:21;3.47;;;3.27;;
2522;SDS011;1272;53.332;9.860;2022-08-11T06:46:50;4.13;;;3.20;;
2522;SDS011;1272;53.332;9.860;2022-08-11T06:49:19;3.60;;;3.20;;
2522;SDS011;1272;53.332;9.860;2022-08-11T06:52:06;3.60;;;3.20;;
2522;SDS011;1272;53.332;9.860;2022-08-11T06:54:42;3.50;;;3.30;;
2522;SDS011;1272;53.332;9.860;2022-08-11T06:57:16;3.20;;;3.00;;
2522;SDS011;1272;53.332;9.860;2022-08-11T07:00:02;4.13;;;3.40;;
2522;SDS011;1272;53.332;9.860;2022-08-11T07:02:51;2.83;;;2.63;;
2522;SDS011;1272;53.332;9.860;2022-08-11T07:14:54;3.40;;;3.20;;
2522;SDS011;1272;53.332;9.860;2022-08-11T07:17:43;3.10;;;2.90;;
2522;SDS011;1272;53.332;9.860;2022-08-11T07:20:13;5.03;;;3.00;;
2522;SDS011;1272;53.332;9.860;2022-08-11T07:22:58;3.20;;;2.90;;
2522;SDS011;1272;53.332;9.860;2022-08-11T07:25:46;3.27;;;3.03;;
2522;SDS011;1272;53.332;9.860;2022-08-11T07:28:34;3.37;;;3.13;;
2522;SDS011;1272;53.332;9.860;2022-08-11T07:34:19;3.17;;;2.97;;
2522;SDS011;1272;53.332;9.860;2022-08-11T07:36:55;3.00;;;2.90;;
2522;SDS011;1272;53.332;9.860;2022-08-11T07:39:24;3.20;;;3.00;;
2522;SDS011;1272;53.332;9.860;2022-08-11T07:41:53;2.97;;;2.77;;
2522;SDS011;1272;53.332;9.860;2022-08-11T07:44:21;2.80;;;2.57;;
2522;SDS011;1272;53.332;9.860;2022-08-11T07:46:53;5.07;;;3.00;;
2522;SDS011;1272;53.332;9.860;2022-08-11T07:49:38;3.27;;;3.07;;
2522;SDS011;1272;53.332;9.860;2022-08-11T07:52:27;3.20;;;3.00;;
2522;SDS011;1272;53.332;9.860;2022-08-11T07:54:56;3.20;;;3.00;;
2522;SDS011;1272;53.332;9.860;2022-08-11T07:57:24;4.60;;;3.27;;
2522;SDS011;1272;53.332;9.860;2022-08-11T08:00:09;3.23;;;2.93;;
2522;SDS011;1272;53.332;9.860;2022-08-11T08:02:54;6.77;;;3.00;;
2522;SDS011;1272;53.332;9.860;2022-08-11T08:05:41;3.40;;;3.20;;
2522;SDS011;1272;53.332;9.860;2022-08-11T08:08:26;3.07;;;2.87;;
2522;SDS011;1272;53.332;9.860;2022-08-11T08:11:10;5.23;;;3.47;;
2522;SDS011;1272;53.332;9.860;2022-08-11T08:13:54;2.93;;;2.63;;
2522;SDS011;1272;53.332;9.860;2022-08-11T08:16:40;3.07;;;2.90;;
2522;SDS011;1272;53.332;9.860;2022-08-11T08:19:25;3.03;;;2.83;;
2522;SDS011;1272;53.332;9.860;2022-08-11T08:21:51;3.30;;;3.10;;
2522;SDS011;1272;53.332;9.860;2022-08-11T08:24:18;3.43;;;3.17;;
2522;SDS011;1272;53.332;9.860;2022-08-11T08:26:44;3.07;;;2.97;;
2522;SDS011;1272;53.332;9.860;2022-08-11T08:29:22;3.70;;;3.00;;
2522;SDS011;1272;53.332;9.860;2022-08-11T08:32:12;4.03;;;3.27;;
2522;SDS011;1272;53.332;9.860;2022-08-11T08:34:40;3.23;;;3.00;;
2522;SDS011;1272;53.332;9.860;2022-08-11T08:37:06;4.43;;;3.93;;
2522;SDS011;1272;53.332;9.860;2022-08-11T08:39:32;3.03;;;2.83;;
2522;SDS011;1272;53.332;9.860;2022-08-11T08:42:01;5.63;;;3.07;;
2522;SDS011;1272;53.332;9.860;2022-08-11T08:44:35;3.40;;;2.73;;
2522;SDS011;1272;53.332;9.860;2022-08-11T08:47:05;3.57;;;3.37;;
2522;SDS011;1272;53.332;9.860;2022-08-11T08:49:35;4.77;;;3.07;;
2522;SDS011;1272;53.332;9.860;2022-08-11T08:52:06;3.93;;;2.93;;
2522;SDS011;1272;53.332;9.860;2022-08-11T08:54:37;6.00;;;3.23;;
2522;SDS011;1272;53.332;9.860;2022-08-11T08:57:06;2.93;;;2.63;;
2522;SDS011;1272;53.332;9.860;2022-08-11T08:59:35;3.40;;;3.13;;
2522;SDS011;1272;53.332;9.860;2022-08-11T09:02:04;3.50;;;3.20;;
2522;SDS011;1272;53.332;9.860;2022-08-11T09:04:31;3.77;;;2.90;;
2522;SDS011;1272;53.332;9.860;2022-08-11T09:06:58;3.63;;;3.43;;
2522;SDS011;1272;53.332;9.860;2022-08-11T09:09:32;3.93;;;3.30;;
2522;SDS011;1272;53.332;9.860;2022-08-11T09:11:58;3.80;;;3.50;;
2522;SDS011;1272;53.332;9.860;2022-08-11T09:14:26;5.50;;;3.00;;
2522;SDS011;1272;53.332;9.860;2022-08-11T09:17:23;2.87;;;2.67;;
2522;SDS011;1272;53.332;9.860;2022-08-11T09:19:52;3.20;;;2.87;;
2522;SDS011;1272;53.332;9.860;2022-08-11T09:22:26;4.80;;;3.30;;
2522;SDS011;1272;53.332;9.860;2022-08-11T09:25:13;3.50;;;3.20;;
2522;SDS011;1272;53.332;9.860;2022-08-11T09:27:58;3.27;;;3.07;;
2522;SDS011;1272;53.332;9.860;2022-08-11T09:30:26;4.20;;;3.20;;
2522;SDS011;1272;53.332;9.860;2022-08-11T09:32:53;3.83;;;3.20;;
2522;SDS011;1272;53.332;9.860;2022-08-11T09:35:32;3.13;;;2.90;;
2522;SDS011;1272;53.332;9.860;2022-08-11T09:38:01;3.47;;;3.17;;
2522;SDS011;1272;53.332;9.860;2022-08-11T09:40:47;3.40;;;3.20;;
2522;SDS011;1272;53.332;9.860;2022-08-11T09:43:15;3.03;;;2.83;;
2522;SDS011;1272;53.332;9.860;2022-08-11T09:46:00;5.60;;;3.00;;
2522;SDS011;1272;53.332;9.860;2022-08-11T09:48:28;5.57;;;3.00;;
2522;SDS011;1272;53.332;9.860;2022-08-11T09:50:59;6.50;;;2.90;;
2522;SDS011;1272;53.332;9.860;2022-08-11T09:53:27;2.77;;;2.67;;
2522;SDS011;1272;53.332;9.860;2022-08-11T09:55:59;3.67;;;3.37;;
2522;SDS011;1272;53.332;9.860;2022-08-11T09:58:45;3.10;;;3.00;;
2522;SDS011;1272;53.332;9.860;2022-08-11T10:01:12;3.10;;;2.80;;
2522;SDS011;1272;53.332;9.860;2022-08-11T10:03:52;3.20;;;3.00;;
2522;SDS011;1272;53.332;9.860;2022-08-11T10:06:33;5.83;;;3.30;;
2522;SDS011;1272;53.332;9.860;2022-08-11T10:09:20;3.43;;;3.13;;
2522;SDS011;1272;53.332;9.860;2022-08-11T10:11:47;4.10;;;3.63;;
2522;SDS011;1272;53.332;9.860;2022-08-11T10:14:14;3.43;;;3.13;;
2522;SDS011;1272;53.332;9.860;2022-08-11T10:17:01;3.80;;;3.20;;
2522;SDS011;1272;53.332;9.860;2022-08-11T10:19:31;3.20;;;2.93;;
2522;SDS011;1272;53.332;9.860;2022-08-11T10:22:00;5.33;;;2.67;;
2522;SDS011;1272;53.332;9.860;2022-08-11T10:24:45;2.53;;;2.43;;
2522;SDS011;1272;53.332;9.860;2022-08-11T10:27:30;3.00;;;2.70;;
2522;SDS011;1272;53.332;9.860;2022-08-11T10:29:56;2.73;;;2.53;;
2522;SDS011;1272;53.332;9.860;2022-08-11T10:32:43;3.10;;;2.80;;
2522;SDS011;1272;53.332;9.860;2022-08-11T10:35:28;3.77;;;2.87;;
2522;SDS011;1272;53.332;9.860;2022-08-11T10:37:56;2.87;;;2.77;;
2522;SDS011;1272;53.332;9.860;2022-08-11T10:40:23;2.63;;;2.43;;
2522;SDS011;1272;53.332;9.860;2022-08-11T10:42:50;2.77;;;2.50;;
2522;SDS011;1272;53.332;9.860;2022-08-11T10:45:37;3.00;;;2.73;;
2522;SDS011;1272;53.332;9.860;2022-08-11T10:48:24;5.10;;;2.33;;
2522;SDS011;1272;53.332;9.860;2022-08-11T10:50:53;5.33;;;2.87;;
2522;SDS011;1272;53.332;9.860;2022-08-11T10:53:39;44.80;;;12.00;;
2522;SDS011;1272;53.332;9.860;2022-08-11T10:56:28;4.03;;;3.43;;
2522;SDS011;1272;53.332;9.860;2022-08-11T10:59:13;7.70;;;3.07;;
2522;SDS011;1272;53.332;9.860;2022-08-11T11:01:41;4.57;;;2.63;;
2522;SDS011;1272;53.332;9.860;2022-08-11T11:04:12;14.63;;;4.50;;
2522;SDS011;1272;53.332;9.860;2022-08-11T11:09:33;21.60;;;6.87;;
2522;SDS011;1272;53.332;9.860;2022-08-11T11:12:15;9.33;;;2.87;;
2522;SDS011;1272;53.332;9.860;2022-08-11T11:15:07;4.07;;;2.53;;
2522;SDS011;1272;53.332;9.860;2022-08-11T11:18:00;4.00;;;2.00;;
2522;SDS011;1272;53.332;9.860;2022-08-11T11:20:38;5.63;;;2.30;;
2522;SDS011;1272;53.332;9.860;2022-08-11T11:23:05;2.43;;;2.10;;
2522;SDS011;1272;53.332;9.860;2022-08-11T11:25:57;2.00;;;1.90;;
2522;SDS011;1272;53.332;9.860;2022-08-11T11:36:55;2.10;;;1.90;;
2522;SDS011;1272;53.332;9.860;2022-08-11T11:39:23;2.50;;;2.00;;
2522;SDS011;1272;53.332;9.860;2022-08-11T11:41:56;2.07;;;1.97;;
2522;SDS011;1272;53.332;9.860;2022-08-11T11:44:24;3.37;;;2.00;;
2522;SDS011;1272;53.332;9.860;2022-08-11T11:46:51;2.00;;;1.73;;
2522;SDS011;1272;53.332;9.860;2022-08-11T11:49:18;2.20;;;2.10;;
2522;SDS011;1272;53.332;9.860;2022-08-11T11:51:48;2.23;;;2.13;;
2522;SDS011;1272;53.332;9.860;2022-08-11T11:54:17;3.70;;;2.50;;
2522;SDS011;1272;53.332;9.860;2022-08-11T11:56:49;1.77;;;1.67;;
2522;SDS011;1272;53.332;9.860;2022-08-11T11:59:17;3.60;;;1.70;;
2522;SDS011;1272;53.332;9.860;2022-08-11T12:02:08;1.83;;;1.73;;
2522;SDS011;1272;53.332;9.860;2022-08-11T12:04:35;2.10;;;2.00;;
2522;SDS011;1272;53.332;9.860;2022-08-11T12:07:04;2.50;;;1.80;;
2522;SDS011;1272;53.332;9.860;2022-08-11T12:09:50;2.30;;;2.20;;
2522;SDS011;1272;53.332;9.860;2022-08-11T12:12:17;2.07;;;1.97;;
2522;SDS011;1272;53.332;9.860;2022-08-11T12:15:22;2.53;;;2.27;;
2522;SDS011;1272;53.332;9.860;2022-08-11T12:17:48;2.70;;;2.50;;
2522;SDS011;1272;53.332;9.860;2022-08-11T12:20:15;3.47;;;2.77;;
2522;SDS011;1272;53.332;9.860;2022-08-11T12:22:43;2.47;;;2.27;;
2522;SDS011;1272;53.332;9.860;2022-08-11T12:25:27;2.10;;;1.90;;
2522;SDS011;1272;53.332;9.860;2022-08-11T12:28:12;2.23;;;2.13;;
2522;SDS011;1272;53.332;9.860;2022-08-11T12:30:38;4.43;;;2.20;;
2522;SDS011;1272;53.332;9.860;2022-08-11T12:33:05;3.17;;;2.33;;
2522;SDS011;1272;53.332;9.860;2022-08-11T12:35:32;4.40;;;2.70;;
2522;SDS011;1272;53.332;9.860;2022-08-11T12:38:00;3.10;;;2.10;;
2522;SDS011;1272;53.332;9.860;2022-08-11T12:40:28;2.87;;;2.10;;
2522;SDS011;1272;53.332;9.860;2022-08-11T12:43:14;2.50;;;2.23;;
2522;SDS011;1272;53.332;9.860;2022-08-11T12:46:05;2.70;;;2.50;;
2522;SDS011;1272;53.332;9.860;2022-08-11T12:48:34;3.60;;;2.00;;
2522;SDS011;1272;53.332;9.860;2022-08-11T12:51:23;4.17;;;2.37;;
2522;SDS011;1272;53.332;9.860;2022-08-11T12:56:45;3.97;;;2.40;;
2522;SDS011;1272;53.332;9.860;2022-08-11T12:59:32;4.97;;;1.80;;
2522;SDS011;1272;53.332;9.860;2022-08-11T13:02:20;2.27;;;1.70;;
2522;SDS011;1272;53.332;9.860;2022-08-11T13:05:07;1.73;;;1.63;;
2522;SDS011;1272;53.332;9.860;2022-08-11T13:07:36;2.80;;;2.60;;
2522;SDS011;1272;53.332;9.860;2022-08-11T13:10:05;2.50;;;2.40;;
2522;SDS011;1272;53.332;9.860;2022-08-11T13:12:33;4.97;;;2.33;;
2522;SDS011;1272;53.332;9.860;2022-08-11T13:15:22;5.17;;;2.37;;
2522;SDS011;1272;53.332;9.860;2022-08-11T13:17:50;2.57;;;2.33;;
2522;SDS011;1272;53.332;9.860;2022-08-11T13:20:19;2.20;;;2.10;;
2522;SDS011;1272;53.332;9.860;2022-08-11T13:22:53;2.23;;;1.80;;
2522;SDS011;1272;53.332;9.860;2022-08-11T13:25:22;5.00;;;2.57;;
2522;SDS011;1272;53.332;9.860;2022-08-11T13:27:51;3.30;;;2.50;;
2522;SDS011;1272;53.332;9.860;2022-08-11T13:30:19;1.63;;;1.53;;
2522;SDS011;1272;53.332;9.860;2022-08-11T13:33:07;2.73;;;2.40;;
2522;SDS011;1272;53.332;9.860;2022-08-11T13:35:35;2.37;;;1.90;;
2522;SDS011;1272;53.332;9.860;2022-08-11T13:38:01;2.60;;;2.50;;
2522;SDS011;1272;53.332;9.860;2022-08-11T13:40:28;2.60;;;2.40;;
2522;SDS011;1272;53.332;9.860;2022-08-11T13:42:55;2.37;;;1.90;;
2522;SDS011;1272;53.332;9.860;2022-08-11T13:45:25;2.00;;;1.90;;
2522;SDS011;1272;53.332;9.860;2022-08-11T13:47:52;3.10;;;2.37;;
2522;SDS011;1272;53.332;9.860;2022-08-11T13:50:20;1.90;;;1.80;;
2522;SDS011;1272;53.332;9.860;2022-08-11T13:53:09;1.90;;;1.80;;
2522;SDS011;1272;53.332;9.860;2022-08-11T13:55:37;1.70;;;1.60;;
2522;SDS011;1272;53.332;9.860;2022-08-11T13:58:04;4.40;;;2.10;;
2522;SDS011;1272;53.332;9.860;2022-08-11T14:00:32;2.13;;;2.03;;
2522;SDS011;1272;53.332;9.860;2022-08-11T14:02:58;2.10;;;2.00;;
2522;SDS011;1272;53.332;9.860;2022-08-11T14:05:26;2.20;;;2.00;;
2522;SDS011;1272;53.332;9.860;2022-08-11T14:07:58;1.80;;;1.70;;
2522;SDS011;1272;53.332;9.860;2022-08-11T14:10:31;1.77;;;1.67;;
2522;SDS011;1272;53.332;9.860;2022-08-11T14:13:01;1.97;;;1.47;;
2522;SDS011;1272;53.332;9.860;2022-08-11T14:15:50;1.93;;;1.83;;
2522;SDS011;1272;53.332;9.860;2022-08-11T14:18:18;2.53;;;2.00;;
2522;SDS011;1272;53.332;9.860;2022-08-11T14:20:48;2.70;;;1.93;;
2522;SDS011;1272;53.332;9.860;2022-08-11T14:23:46;3.43;;;1.90;;
2522;SDS011;1272;53.332;9.860;2022-08-11T14:26:16;3.27;;;1.67;;
2522;SDS011;1272;53.332;9.860;2022-08-11T14:31:28;2.20;;;1.70;;
2522;SDS011;1272;53.332;9.860;2022-08-11T14:33:56;1.70;;;1.60;;
2522;SDS011;1272;53.332;9.860;2022-08-11T14:36:27;2.20;;;2.10;;
2522;SDS011;1272;53.332;9.860;2022-08-11T14:38:56;1.93;;;1.83;;
2522;SDS011;1272;53.332;9.860;2022-08-11T14:41:22;1.90;;;1.80;;
2522;SDS011;1272;53.332;9.860;2022-08-11T14:44:08;1.87;;;1.77;;
2522;SDS011;1272;53.332;9.860;2022-08-11T14:46:53;1.70;;;1.60;;
2522;SDS011;1272;53.332;9.860;2022-08-11T14:49:30;1.80;;;1.70;;
2522;SDS011;1272;53.332;9.860;2022-08-11T14:52:05;2.23;;;1.60;;
2522;SDS011;1272;53.332;9.860;2022-08-11T14:54:33;1.80;;;1.70;;
2522;SDS011;1272;53.332;9.860;2022-08-11T14:57:19;1.30;;;1.20;;
2522;SDS011;1272;53.332;9.860;2022-08-11T14:59:46;2.70;;;1.57;;
2522;SDS011;1272;53.332;9.860;2022-08-11T15:02:14;2.90;;;1.30;;
2522;SDS011;1272;53.332;9.860;2022-08-11T15:05:00;1.30;;;1.30;;
2522;SDS011;1272;53.332;9.860;2022-08-11T15:07:28;1.60;;;1.50;;
2522;SDS011;1272;53.332;9.860;2022-08-11T15:09:57;2.93;;;1.37;;
2522;SDS011;1272;53.332;9.860;2022-08-11T15:12:24;1.40;;;1.30;;
2522;SDS011;1272;53.332;9.860;2022-08-11T15:14:50;4.30;;;1.80;;
2522;SDS011;1272;53.332;9.860;2022-08-11T15:17:34;2.20;;;1.53;;
2522;SDS011;1272;53.332;9.860;2022-08-11T15:20:06;2.20;;;1.50;;
2522;SDS011;1272;53.332;9.860;2022-08-11T15:22:53;1.60;;;1.50;;
2522;SDS011;1272;53.332;9.860;2022-08-11T15:25:39;1.37;;;1.30;;
2522;SDS011;1272;53.332;9.860;2022-08-11T15:28:08;1.83;;;1.73;;
2522;SDS011;1272;53.332;9.860;2022-08-11T15:30:54;1.27;;;1.20;;
2522;SDS011;1272;53.332;9.860;2022-08-11T15:33:40;1.03;;;1.03;;
2522;SDS011;1272;53.332;9.860;2022-08-11T15:36:28;1.47;;;1.37;;
2522;SDS011;1272;53.332;9.860;2022-08-11T15:39:18;1.50;;;1.40;;
2522;SDS011;1272;53.332;9.860;2022-08-11T15:41:49;1.70;;;1.60;;
2522;SDS011;1272;53.332;9.860;2022-08-11T15:44:40;1.93;;;1.57;;
2522;SDS011;1272;53.332;9.860;2022-08-11T15:47:26;1.33;;;1.33;;
2522;SDS011;1272;53.332;9.860;2022-08-11T15:49:57;2.40;;;1.30;;
2522;SDS011;1272;53.332;9.860;2022-08-11T15:52:26;1.67;;;1.57;;
2522;SDS011;1272;53.332;9.860;2022-08-11T15:54:57;1.60;;;1.50;;
2522;SDS011;1272;53.332;9.860;2022-08-11T15:57:26;1.93;;;1.60;;
2522;SDS011;1272;53.332;9.860;2022-08-11T16:00:12;1.50;;;1.40;;
2522;SDS011;1272;53.332;9.860;2022-08-11T16:02:59;2.97;;;2.27;;
2522;SDS011;1272;53.332;9.860;2022-08-11T16:05:46;3.43;;;1.40;;
2522;SDS011;1272;53.332;9.860;2022-08-11T16:08:15;1.70;;;1.60;;
2522;SDS011;1272;53.332;9.860;2022-08-11T16:10:43;3.23;;;1.67;;
2522;SDS011;1272;53.332;9.860;2022-08-11T16:13:10;2.00;;;1.30;;
2522;SDS011;1272;53.332;9.860;2022-08-11T16:15:38;3.00;;;1.40;;
2522;SDS011;1272;53.332;9.860;2022-08-11T16:18:28;2.13;;;1.40;;
2522;SDS011;1272;53.332;9.860;2022-08-11T16:21:07;4.73;;;1.60;;
2522;SDS011;1272;53.332;9.860;2022-08-11T16:23:36;1.80;;;1.70;;
2522;SDS011;1272;53.332;9.860;2022-08-11T16:26:06;5.87;;;1.70;;
2522;SDS011;1272;53.332;9.860;2022-08-11T16:28:33;3.57;;;1.50;;
2522;SDS011;1272;53.332;9.860;2022-08-11T16:31:02;1.83;;;1.50;;
2522;SDS011;1272;53.332;9.860;2022-08-11T16:33:34;3.97;;;1.50;;
2522;SDS011;1272;53.332;9.860;2022-08-11T16:36:02;2.07;;;1.70;;
2522;SDS011;1272;53.332;9.860;2022-08-11T16:38:47;1.47;;;1.37;;
2522;SDS011;1272;53.332;9.860;2022-08-11T16:41:15;3.53;;;1.70;;
2522;SDS011;1272;53.332;9.860;2022-08-11T16:44:06;1.73;;;1.30;;
2522;SDS011;1272;53.332;9.860;2022-08-11T16:46:54;2.03;;;1.60;;
2522;SDS011;1272;53.332;9.860;2022-08-11T16:49:26;3.40;;;1.53;;
2522;SDS011;1272;53.332;9.860;2022-08-11T16:51:55;2.70;;;1.50;;
2522;SDS011;1272;53.332;9.860;2022-08-11T16:54:21;3.73;;;1.43;;
2522;SDS011;1272;53.332;9.860;2022-08-11T16:56:48;2.13;;;1.40;;
2522;SDS011;1272;53.332;9.860;2022-08-11T16:59:19;1.87;;;1.77;;
2522;SDS011;1272;53.332;9.860;2022-08-11T17:02:11;2.70;;;1.50;;
2522;SDS011;1272;53.332;9.860;2022-08-11T17:04:59;3.00;;;1.67;;
2522;SDS011;1272;53.332;9.860;2022-08-11T17:07:49;1.40;;;1.30;;
2522;SDS011;1272;53.332;9.860;2022-08-11T17:11:09;2.70;;;1.60;;
2522;SDS011;1272;53.332;9.860;2022-08-11T17:13:58;4.10;;;2.07;;
2522;SDS011;1272;53.332;9.860;2022-08-11T17:16:31;3.53;;;1.60;;
2522;SDS011;1272;53.332;9.860;2022-08-11T17:19:07;2.70;;;1.73;;
2522;SDS011;1272;53.332;9.860;2022-08-11T17:21:40;2.10;;;1.93;;
2522;SDS011;1272;53.332;9.860;2022-08-11T17:24:30;3.40;;;2.30;;
2522;SDS011;1272;53.332;9.860;2022-08-11T17:27:00;2.60;;;2.40;;
2522;SDS011;1272;53.332;9.860;2022-08-11T17:31:55;4.40;;;2.30;;
2522;SDS011;1272;53.332;9.860;2022-08-11T17:34:42;2.70;;;2.00;;
2522;SDS011;1272;53.332;9.860;2022-08-11T17:37:28;2.13;;;1.93;;
2522;SDS011;1272;53.332;9.860;2022-08-11T17:39:57;6.90;;;2.00;;
2522;SDS011;1272;53.332;9.860;2022-08-11T17:42:26;4.73;;;2.00;;
2522;SDS011;1272;53.332;9.860;2022-08-11T17:45:14;3.17;;;1.80;;
2522;SDS011;1272;53.332;9.860;2022-08-11T17:48:01;1.97;;;1.87;;
2522;SDS011;1272;53.332;9.860;2022-08-11T17:50:46;3.60;;;2.43;;
2522;SDS011;1272;53.332;9.860;2022-08-11T17:53:13;1.77;;;1.67;;
2522;SDS011;1272;53.332;9.860;2022-08-11T17:55:59;2.10;;;1.90;;
2522;SDS011;1272;53.332;9.860;2022-08-11T17:58:45;3.60;;;2.00;;
2522;SDS011;1272;53.332;9.860;2022-08-11T18:01:33;2.03;;;1.93;;
2522;SDS011;1272;53.332;9.860;2022-08-11T18:04:01;4.53;;;1.53;;
2522;SDS011;1272;53.332;9.860;2022-08-11T18:06:30;2.27;;;1.80;;
2522;SDS011;1272;53.332;9.860;2022-08-11T18:08:57;2.90;;;1.87;;
2522;SDS011;1272;53.332;9.860;2022-08-11T18:11:42;2.80;;;1.80;;
2522;SDS011;1272;53.332;9.860;2022-08-11T18:14:28;4.57;;;1.83;;
2522;SDS011;1272;53.332;9.860;2022-08-11T18:17:14;1.80;;;1.70;;
2522;SDS011;1272;53.332;9.860;2022-08-11T18:19:58;8.10;;;1.90;;
2522;SDS011;1272;53.332;9.860;2022-08-11T18:22:43;1.83;;;1.70;;
2522;SDS011;1272;53.332;9.860;2022-08-11T18:25:31;2.93;;;1.90;;
2522;SDS011;1272;53.332;9.860;2022-08-11T18:28:23;1.87;;;1.53;;
2522;SDS011;1272;53.332;9.860;2022-08-11T18:31:12;4.00;;;1.67;;
2522;SDS011;1272;53.332;9.860;2022-08-11T18:34:00;4.00;;;1.87;;
2522;SDS011;1272;53.332;9.860;2022-08-11T18:36:49;5.00;;;1.53;;
2522;SDS011;1272;53.332;9.860;2022-08-11T18:39:42;4.43;;;2.17;;
2522;SDS011;1272;53.332;9.860;2022-08-11T18:42:28;2.20;;;1.50;;
2522;SDS011;1272;53.332;9.860;2022-08-11T18:45:15;3.53;;;1.73;;
2522;SDS011;1272;53.332;9.860;2022-08-11T18:48:02;3.43;;;1.43;;
2522;SDS011;1272;53.332;9.860;2022-08-11T18:50:51;2.23;;;2.10;;
2522;SDS011;1272;53.332;9.860;2022-08-11T18:53:38;4.40;;;1.40;;
2522;SDS011;1272;53.332;9.860;2022-08-11T18:56:24;3.57;;;1.60;;
2522;SDS011;1272;53.332;9.860;2022-08-11T18:59:12;3.03;;;1.73;;
2522;SDS011;1272;53.332;9.860;2022-08-11T19:02:00;2.70;;;1.60;;
2522;SDS011;1272;53.332;9.860;2022-08-11T19:04:44;1.60;;;1.50;;
2522;SDS011;1272;53.332;9.860;2022-08-11T19:07:29;3.73;;;1.63;;
2522;SDS011;1272;53.332;9.860;2022-08-11T19:10:15;3.93;;;3.33;;
2522;SDS011;1272;53.332;9.860;2022-08-11T19:13:01;5.40;;;3.70;;
2522;SDS011;1272;53.332;9.860;2022-08-11T19:15:45;5.43;;;2.90;;
2522;SDS011;1272;53.332;9.860;2022-08-11T19:18:30;2.23;;;2.03;;
2522;SDS011;1272;53.332;9.860;2022-08-11T19:21:17;2.50;;;1.80;;
2522;SDS011;1272;53.332;9.860;2022-08-11T19:24:03;2.10;;;2.00;;
2522;SDS011;1272;53.332;9.860;2022-08-11T19:26:49;3.67;;;1.97;;
2522;SDS011;1272;53.332;9.860;2022-08-11T19:29:36;2.20;;;1.87;;
2522;SDS011;1272;53.332;9.860;2022-08-11T19:32:22;2.93;;;1.90;;
2522;SDS011;1272;53.332;9.860;2022-08-11T19:35:08;2.60;;;1.80;;
2522;SDS011;1272;53.332;9.860;2022-08-11T19:37:53;2.07;;;1.93;;
2522;SDS011;1272;53.332;9.860;2022-08-11T19:40:39;2.27;;;2.07;;
2522;SDS011;1272;53.332;9.860;2022-08-11T19:43:26;1.73;;;1.67;;
2522;SDS011;1272;53.332;9.860;2022-08-11T19:46:13;2.10;;;2.00;;
2522;SDS011;1272;53.332;9.860;2022-08-11T19:49:00;2.07;;;1.70;;
2522;SDS011;1272;53.332;9.860;2022-08-11T19:51:46;2.57;;;2.00;;
2522;SDS011;1272;53.332;9.860;2022-08-11T19:54:33;2.70;;;2.33;;
2522;SDS011;1272;53.332;9.860;2022-08-11T19:57:18;4.90;;;2.43;;
2522;SDS011;1272;53.332;9.860;2022-08-11T20:00:06;5.60;;;1.90;;
2522;SDS011;1272;53.332;9.860;2022-08-11T20:02:54;3.70;;;1.77;;
2522;SDS011;1272;53.332;9.860;2022-08-11T20:05:39;2.40;;;1.83;;